createdAt,value
2023-05-05T00:01:35.343Z,6.27
2023-05-05T00:04:02.535Z,6.90
2023-05-05T00:06:29.317Z,6.53
2023-05-05T00:08:56.350Z,6.20
2023-05-05T00:11:23.699Z,6.13
2023-05-05T00:13:51.547Z,6.17
2023-05-05T00:16:18.472Z,5.97
2023-05-05T00:18:45.580Z,6.13
2023-05-05T00:21:12.332Z,6.40
2023-05-05T00:23:39.482Z,6.07
2023-05-05T00:26:06.615Z,6.20
2023-05-05T00:28:33.340Z,5.80
2023-05-05T00:31:00.421Z,5.50
2023-05-05T00:33:27.274Z,5.50
2023-05-05T00:35:53.961Z,5.80
2023-05-05T00:38:20.791Z,5.53
2023-05-05T00:40:47.547Z,5.80
2023-05-05T00:43:14.254Z,5.57
2023-05-05T00:45:44.257Z,5.70
2023-05-05T00:48:11.629Z,5.20
2023-05-05T00:50:38.773Z,5.40
2023-05-05T00:53:06.966Z,5.70
2023-05-05T00:55:35.428Z,5.50
2023-05-05T00:58:04.579Z,5.13
2023-05-05T01:00:32.013Z,5.63
2023-05-05T01:02:59.747Z,4.83
2023-05-05T01:05:40.032Z,5.57
2023-05-05T01:08:33.735Z,5.17
2023-05-05T01:11:12.299Z,5.53
2023-05-05T01:13:52.639Z,5.27
2023-05-05T01:16:25.224Z,5.57
2023-05-05T01:19:04.959Z,5.20
2023-05-05T01:21:45.679Z,5.30
2023-05-05T01:24:18.789Z,5.60
2023-05-05T01:27:11.863Z,5.17
2023-05-05T01:30:02.225Z,4.60
2023-05-05T01:32:33.960Z,5.73
2023-05-05T01:35:03.175Z,6.03
2023-05-05T01:37:43.560Z,5.33
2023-05-05T01:40:13.665Z,6.13
2023-05-05T01:42:43.558Z,5.50
2023-05-05T01:45:12.827Z,5.13
2023-05-05T01:47:42.041Z,5.33
2023-05-05T01:50:10.550Z,6.00
2023-05-05T01:52:39.339Z,5.50
2023-05-05T01:55:08.529Z,5.80
2023-05-05T01:57:37.277Z,5.73
2023-05-05T02:00:05.405Z,5.03
2023-05-05T02:02:45.195Z,5.47
2023-05-05T02:05:13.307Z,5.83
2023-05-05T02:07:40.606Z,5.53
2023-05-05T02:10:13.135Z,5.40
2023-05-05T02:12:42.714Z,5.50
2023-05-05T02:15:11.333Z,6.23
2023-05-05T02:17:42.931Z,7.30
2023-05-05T02:20:14.069Z,6.37
2023-05-05T02:22:41.232Z,6.10
2023-05-05T02:25:09.470Z,6.23
2023-05-05T02:27:40.764Z,6.80
2023-05-05T02:30:11.373Z,5.60
2023-05-05T02:32:42.922Z,6.30
2023-05-05T02:35:24.597Z,5.70
2023-05-05T02:37:59.841Z,5.37
2023-05-05T02:40:31.446Z,5.53
2023-05-05T02:43:01.872Z,6.13
2023-05-05T02:45:30.863Z,6.20
2023-05-05T02:47:57.934Z,6.37
2023-05-05T02:50:24.837Z,5.77
2023-05-05T02:53:00.275Z,5.77
2023-05-05T02:55:33.462Z,5.77
2023-05-05T02:58:07.735Z,5.40
2023-05-05T03:01:04.694Z,5.80
2023-05-05T03:03:40.142Z,5.63
2023-05-05T03:06:21.796Z,5.40
2023-05-05T03:09:03.263Z,5.40
2023-05-05T03:11:42.827Z,5.83
2023-05-05T03:14:13.566Z,5.87
2023-05-05T03:16:42.872Z,6.17
2023-05-05T03:19:12.991Z,6.07
2023-05-05T03:21:41.188Z,5.90
2023-05-05T03:24:26.453Z,6.23
2023-05-05T03:27:09.037Z,5.83
2023-05-05T03:29:38.362Z,5.97
2023-05-05T03:32:09.474Z,5.53
2023-05-05T03:34:37.845Z,6.50
2023-05-05T03:37:06.041Z,5.57
2023-05-05T03:39:33.405Z,6.20
2023-05-05T03:42:00.441Z,6.07
2023-05-05T03:44:30.892Z,5.57
2023-05-05T03:46:57.909Z,5.87
2023-05-05T03:49:25.616Z,5.50
2023-05-05T03:51:52.713Z,5.57
2023-05-05T03:54:19.474Z,6.10
2023-05-05T03:56:46.273Z,6.00
2023-05-05T03:59:13.225Z,6.37
2023-05-05T04:01:40.268Z,5.50
2023-05-05T04:04:07.501Z,5.97
2023-05-05T04:06:35.560Z,5.80
2023-05-05T04:09:03.123Z,5.60
2023-05-05T04:11:29.884Z,5.40
2023-05-05T04:13:57.353Z,5.43
2023-05-05T04:16:25.071Z,5.30
2023-05-05T04:18:52.404Z,5.43
2023-05-05T04:21:19.198Z,5.33
2023-05-05T04:23:46.503Z,6.07
2023-05-05T04:26:13.663Z,6.07
2023-05-05T04:28:42.280Z,6.13
2023-05-05T04:31:09.375Z,5.27
2023-05-05T04:33:39.819Z,5.53
2023-05-05T04:36:07.041Z,5.33
2023-05-05T04:38:34.065Z,4.97
2023-05-05T04:41:06.512Z,5.30
2023-05-05T04:43:34.207Z,6.53
2023-05-05T04:46:01.021Z,6.60
2023-05-05T04:48:30.869Z,6.30
2023-05-05T04:50:57.649Z,4.90
2023-05-05T04:53:24.477Z,4.60
2023-05-05T04:55:51.688Z,5.40
2023-05-05T04:58:18.390Z,4.77
2023-05-05T05:00:45.472Z,4.77
2023-05-05T05:03:12.826Z,5.13
2023-05-05T05:05:39.697Z,5.17
2023-05-05T05:08:06.840Z,5.37
2023-05-05T05:10:33.685Z,4.93
2023-05-05T05:13:00.449Z,5.17
2023-05-05T05:15:27.868Z,6.37
2023-05-05T05:17:54.808Z,5.73
2023-05-05T05:20:21.981Z,5.20
2023-05-05T05:22:49.736Z,4.50
2023-05-05T05:25:19.483Z,4.60
2023-05-05T05:27:55.314Z,4.67
2023-05-05T05:30:33.751Z,4.40
2023-05-05T05:33:02.262Z,4.27
2023-05-05T05:35:29.603Z,4.60
2023-05-05T05:37:56.615Z,3.65
2023-05-05T05:40:24.687Z,4.07
2023-05-05T05:42:51.456Z,4.20
2023-05-05T05:45:18.796Z,4.70
2023-05-05T05:47:45.542Z,4.70
2023-05-05T05:50:13.282Z,4.70
2023-05-05T05:52:39.989Z,3.88
2023-05-05T05:55:08.393Z,3.83
2023-05-05T05:57:35.749Z,3.42
2023-05-05T06:00:04.806Z,3.53
2023-05-05T06:02:38.695Z,3.30
2023-05-05T06:05:09.672Z,3.50
2023-05-05T06:07:37.766Z,3.53
2023-05-05T06:10:22.906Z,3.35
2023-05-05T06:12:55.633Z,3.65
2023-05-05T06:15:22.633Z,3.22
2023-05-05T06:17:50.108Z,3.35
2023-05-05T06:20:16.972Z,3.17
2023-05-05T06:22:43.748Z,3.30
2023-05-05T06:25:11.264Z,2.80
2023-05-05T06:27:39.005Z,2.83
2023-05-05T06:30:07.889Z,2.17
2023-05-05T06:32:35.195Z,2.30
2023-05-05T06:35:02.371Z,2.58
2023-05-05T06:37:29.126Z,2.50
2023-05-05T06:39:57.092Z,2.88
2023-05-05T06:42:24.107Z,2.47
2023-05-05T06:44:52.832Z,2.60
2023-05-05T06:47:19.673Z,2.17
2023-05-05T06:49:46.550Z,2.50
2023-05-05T06:52:13.601Z,2.20
2023-05-05T06:54:40.472Z,2.17
2023-05-05T06:57:07.233Z,2.05
2023-05-05T06:59:34.422Z,1.90
2023-05-05T07:02:01.149Z,2.50
2023-05-05T07:04:28.409Z,2.20
2023-05-05T07:06:55.348Z,2.30
2023-05-05T07:09:22.055Z,2.53
2023-05-05T07:11:48.750Z,2.30
2023-05-05T07:14:15.801Z,2.30
2023-05-05T07:16:42.636Z,2.22
2023-05-05T07:19:09.660Z,2.08
2023-05-05T07:21:36.754Z,1.90
2023-05-05T07:24:03.933Z,2.22
2023-05-05T07:26:31.761Z,2.30
2023-05-05T07:28:59.332Z,2.78
2023-05-05T07:31:26.596Z,2.60
2023-05-05T07:33:53.494Z,2.33
2023-05-05T07:36:20.685Z,2.60
2023-05-05T07:38:47.479Z,2.20
2023-05-05T07:41:14.400Z,3.20
2023-05-05T07:43:44.277Z,6.60
2023-05-05T07:46:12.290Z,2.20
2023-05-05T07:48:41.605Z,2.47
2023-05-05T07:51:09.609Z,2.28
2023-05-05T07:53:37.026Z,2.35
2023-05-05T07:56:03.889Z,2.50
2023-05-05T07:58:31.120Z,2.47
2023-05-05T08:00:58.136Z,2.20
2023-05-05T08:03:25.366Z,2.17
2023-05-05T08:05:54.782Z,2.38
2023-05-05T08:08:25.264Z,2.30
2023-05-05T08:10:53.185Z,2.10
2023-05-05T08:13:20.572Z,2.20
2023-05-05T08:15:47.736Z,2.20
2023-05-05T08:18:14.998Z,2.00
2023-05-05T08:20:41.885Z,2.17
2023-05-05T08:23:08.939Z,2.38
2023-05-05T08:25:36.315Z,1.85
2023-05-05T08:28:03.088Z,2.20
2023-05-05T08:30:30.269Z,2.17
2023-05-05T08:32:57.159Z,1.98
2023-05-05T08:35:24.137Z,2.10
2023-05-05T08:37:51.882Z,2.20
2023-05-05T08:40:21.147Z,2.38
2023-05-05T08:42:48.189Z,2.05
2023-05-05T08:45:16.147Z,2.65
2023-05-05T08:47:44.682Z,2.08
2023-05-05T08:50:12.120Z,1.60
2023-05-05T08:52:45.565Z,2.70
2023-05-05T08:55:25.681Z,2.22
2023-05-05T08:57:56.631Z,2.00
2023-05-05T09:00:24.496Z,1.90
2023-05-05T09:02:51.970Z,2.08
2023-05-05T09:05:18.795Z,2.08
2023-05-05T09:07:47.357Z,2.10
2023-05-05T09:10:14.168Z,2.20
2023-05-05T09:12:42.162Z,2.08
2023-05-05T09:15:10.914Z,1.80
2023-05-05T09:17:38.328Z,2.05
2023-05-05T09:20:07.352Z,2.03
2023-05-05T09:22:37.260Z,2.00
2023-05-05T09:25:09.966Z,2.15
2023-05-05T09:27:41.468Z,2.03
2023-05-05T09:30:15.787Z,2.00
2023-05-05T09:32:51.217Z,2.25
2023-05-05T09:35:19.718Z,2.60
2023-05-05T09:37:47.136Z,1.60
2023-05-05T09:40:15.850Z,2.10
2023-05-05T09:42:42.941Z,2.45
2023-05-05T09:45:18.954Z,2.72
2023-05-05T09:47:47.324Z,2.58
2023-05-05T09:50:18.970Z,2.42
2023-05-05T09:53:01.132Z,2.35
2023-05-05T09:55:28.816Z,1.80
2023-05-05T09:57:56.386Z,2.00
2023-05-05T10:00:38.828Z,1.70
2023-05-05T10:03:05.602Z,1.58
2023-05-05T10:05:32.465Z,1.92
2023-05-05T10:08:13.310Z,1.77
2023-05-05T10:11:05.129Z,1.50
2023-05-05T10:13:36.618Z,1.80
2023-05-05T10:16:04.627Z,1.70
2023-05-05T10:18:32.476Z,1.73
2023-05-05T10:21:01.841Z,1.88
2023-05-05T10:23:38.156Z,1.73
2023-05-05T10:26:12.656Z,1.90
2023-05-05T10:28:55.511Z,1.80
2023-05-05T10:31:43.390Z,2.08
2023-05-05T10:34:13.560Z,2.13
2023-05-05T10:36:40.622Z,2.65
2023-05-05T10:39:09.490Z,2.97
2023-05-05T10:41:37.172Z,2.42
2023-05-05T10:44:06.031Z,2.10
2023-05-05T10:46:33.165Z,2.00
2023-05-05T10:49:26.883Z,2.03
2023-05-05T10:52:08.533Z,3.75
2023-05-05T10:54:43.271Z,2.05
2023-05-05T10:57:11.776Z,2.25
2023-05-05T10:59:38.814Z,2.25
2023-05-05T11:02:24.946Z,2.28
2023-05-05T11:05:07.395Z,2.15
2023-05-05T11:07:37.166Z,2.25
2023-05-05T11:10:08.585Z,2.00
2023-05-05T11:12:54.094Z,2.53
2023-05-05T11:15:27.468Z,2.30
2023-05-05T11:17:56.262Z,2.40
2023-05-05T11:20:49.115Z,2.67
2023-05-05T11:23:22.212Z,2.20
2023-05-05T11:25:51.359Z,2.55
2023-05-05T11:28:26.089Z,2.30
2023-05-05T11:30:59.378Z,2.92
2023-05-05T11:33:30.137Z,2.08
2023-05-05T11:36:01.329Z,2.30
2023-05-05T11:38:41.348Z,1.80
2023-05-05T11:41:23.565Z,2.13
2023-05-05T11:43:50.422Z,2.30
2023-05-05T11:46:17.423Z,2.40
2023-05-05T11:48:48.282Z,1.90
2023-05-05T11:51:16.579Z,2.20
2023-05-05T11:53:48.747Z,2.40
2023-05-05T11:56:21.782Z,2.30
2023-05-05T11:58:49.855Z,2.13
2023-05-05T12:01:17.328Z,2.42
2023-05-05T12:03:46.089Z,2.00
2023-05-05T12:06:13.187Z,2.08
2023-05-05T12:08:41.540Z,2.47
2023-05-05T12:11:10.764Z,2.50
2023-05-05T12:13:37.790Z,2.17
2023-05-05T12:16:11.933Z,2.08
2023-05-05T12:18:39.850Z,2.10
2023-05-05T12:21:19.326Z,2.55
2023-05-05T12:23:46.954Z,2.78
2023-05-05T12:26:31.153Z,2.60
2023-05-05T12:29:00.089Z,2.67
2023-05-05T12:31:40.132Z,2.50
2023-05-05T12:34:11.200Z,3.05
2023-05-05T12:36:39.529Z,2.42
2023-05-05T12:39:06.400Z,2.47
2023-05-05T12:41:34.390Z,3.58
2023-05-05T12:44:03.341Z,2.53
2023-05-05T12:46:31.329Z,2.53
2023-05-05T12:49:06.072Z,2.40
2023-05-05T12:51:37.147Z,2.90
2023-05-05T12:54:13.240Z,2.47
2023-05-05T12:56:45.646Z,2.30
2023-05-05T12:59:30.039Z,2.45
2023-05-05T13:02:02.859Z,2.03
2023-05-05T13:04:29.962Z,3.80
2023-05-05T13:07:08.839Z,2.20
2023-05-05T13:09:35.680Z,2.17
2023-05-05T13:12:04.080Z,2.22
2023-05-05T13:14:37.426Z,1.90
2023-05-05T13:17:04.607Z,2.03
2023-05-05T13:19:32.509Z,2.80
2023-05-05T13:21:59.274Z,3.13
2023-05-05T13:24:42.254Z,2.60
2023-05-05T13:27:13.877Z,2.90
2023-05-05T13:29:41.771Z,3.10
2023-05-05T13:32:09.561Z,2.75
2023-05-05T13:34:36.350Z,2.80
2023-05-05T13:37:03.307Z,2.83
2023-05-05T13:39:30.100Z,2.90
2023-05-05T13:41:56.895Z,3.20
2023-05-05T13:44:24.277Z,2.83
2023-05-05T13:46:51.206Z,2.63
2023-05-05T13:49:18.311Z,2.70
2023-05-05T13:51:47.188Z,3.08
2023-05-05T13:54:14.279Z,2.67
2023-05-05T13:56:41.066Z,2.58
2023-05-05T13:59:08.097Z,3.00
2023-05-05T14:01:35.235Z,2.65
2023-05-05T14:04:04.483Z,2.85
2023-05-05T14:06:33.159Z,2.70
2023-05-05T14:09:00.215Z,2.70
2023-05-05T14:11:27.060Z,4.00
2023-05-05T14:13:54.231Z,3.45
2023-05-05T14:16:21.148Z,4.40
2023-05-05T14:18:48.487Z,4.00
2023-05-05T14:21:15.555Z,4.22
2023-05-05T14:23:42.256Z,3.67
2023-05-05T14:26:09.374Z,3.60
2023-05-05T14:28:36.208Z,3.90
2023-05-05T14:31:03.338Z,3.78
2023-05-05T14:33:30.189Z,3.85
2023-05-05T14:35:56.994Z,3.88
2023-05-05T14:38:23.735Z,3.90
2023-05-05T14:40:50.711Z,3.47
2023-05-05T14:43:17.538Z,5.05
2023-05-05T14:45:44.742Z,3.42
2023-05-05T14:48:11.573Z,3.35
2023-05-05T14:50:39.950Z,3.60
2023-05-05T14:53:06.744Z,3.45
2023-05-05T14:55:33.833Z,3.75
2023-05-05T14:58:00.886Z,3.15
2023-05-05T15:00:28.497Z,3.10
2023-05-05T15:02:55.702Z,3.53
2023-05-05T15:05:22.551Z,3.35
2023-05-05T15:07:49.466Z,3.55
2023-05-05T15:10:16.344Z,3.83
2023-05-05T15:12:43.914Z,3.80
2023-05-05T15:15:11.873Z,3.42
2023-05-05T15:17:38.916Z,3.60
2023-05-05T15:20:06.910Z,3.28
2023-05-05T15:22:34.410Z,3.90
2023-05-05T15:25:01.368Z,3.42
2023-05-05T15:27:28.881Z,3.42
2023-05-05T15:29:55.912Z,2.88
2023-05-05T15:32:22.803Z,3.22
2023-05-05T15:34:50.529Z,3.08
2023-05-05T15:37:19.304Z,3.65
2023-05-05T15:39:46.124Z,3.40
2023-05-05T15:42:12.884Z,3.42
2023-05-05T15:44:40.005Z,3.00
2023-05-05T15:47:06.927Z,3.30
2023-05-05T15:49:34.119Z,3.17
2023-05-05T15:52:01.239Z,3.60
2023-05-05T15:54:28.018Z,3.40
2023-05-05T15:56:55.178Z,3.72
2023-05-05T15:59:22.779Z,3.63
2023-05-05T16:01:49.743Z,3.28
2023-05-05T16:04:16.471Z,3.38
2023-05-05T16:06:43.362Z,3.45
2023-05-05T16:09:10.291Z,3.15
2023-05-05T16:11:37.470Z,3.58
2023-05-05T16:14:04.874Z,3.22
2023-05-05T16:16:31.588Z,3.50
2023-05-05T16:18:58.383Z,3.50
2023-05-05T16:21:25.659Z,3.35
2023-05-05T16:23:52.590Z,3.47
2023-05-05T16:26:19.748Z,3.30
2023-05-05T16:28:46.616Z,3.70
2023-05-05T16:31:13.645Z,3.50
2023-05-05T16:33:41.495Z,3.60
2023-05-05T16:36:12.528Z,3.65
2023-05-05T16:38:40.662Z,3.78
2023-05-05T16:41:07.757Z,3.78
2023-05-05T16:43:37.152Z,3.75
2023-05-05T16:46:04.887Z,3.92
2023-05-05T16:48:31.828Z,3.50
2023-05-05T16:50:58.778Z,3.72
2023-05-05T16:53:25.790Z,3.85
2023-05-05T16:55:53.490Z,3.88
2023-05-05T16:58:21.533Z,4.85
2023-05-05T17:00:52.089Z,4.93
2023-05-05T17:03:20.473Z,4.68
2023-05-05T17:05:49.996Z,4.50
2023-05-05T17:08:17.427Z,4.88
2023-05-05T17:10:45.316Z,5.28
2023-05-05T17:13:13.684Z,5.63
2023-05-05T17:15:41.924Z,5.78
2023-05-05T17:18:09.243Z,5.22
2023-05-05T17:20:36.655Z,5.97
2023-05-05T17:23:03.733Z,5.20
2023-05-05T17:25:31.482Z,5.80
2023-05-05T17:27:58.234Z,5.35
2023-05-05T17:30:25.054Z,6.05
2023-05-05T17:32:52.555Z,6.25
2023-05-05T17:35:19.583Z,5.68
2023-05-05T17:37:46.592Z,5.60
2023-05-05T17:40:13.433Z,6.85
2023-05-05T17:42:40.601Z,6.13
2023-05-05T17:45:08.337Z,6.95
2023-05-05T17:47:36.354Z,6.70
2023-05-05T17:50:03.428Z,5.97
2023-05-05T17:52:30.377Z,6.32
2023-05-05T17:54:57.454Z,6.22
2023-05-05T17:57:24.128Z,6.30
2023-05-05T17:59:52.267Z,6.68
2023-05-05T18:02:19.613Z,7.55
2023-05-05T18:04:47.371Z,7.57
2023-05-05T18:07:14.780Z,6.85
2023-05-05T18:09:42.739Z,7.00
2023-05-05T18:12:09.580Z,6.38
2023-05-05T18:14:36.696Z,6.75
2023-05-05T18:17:03.498Z,6.70
2023-05-05T18:19:30.852Z,6.13
2023-05-05T18:21:58.386Z,6.07
2023-05-05T18:24:25.333Z,6.90
2023-05-05T18:26:52.919Z,5.70
2023-05-05T18:29:24.277Z,4.13
2023-05-05T18:31:53.523Z,3.90
2023-05-05T18:34:21.517Z,4.20
2023-05-05T18:36:50.787Z,3.45
2023-05-05T18:39:18.119Z,3.90
2023-05-05T18:41:44.948Z,4.30
2023-05-05T18:44:12.161Z,3.90
2023-05-05T18:46:39.172Z,4.25
2023-05-05T18:49:06.735Z,4.00
2023-05-05T18:51:33.468Z,4.03
2023-05-05T18:54:01.191Z,3.75
2023-05-05T18:56:28.324Z,4.20
2023-05-05T18:58:55.631Z,3.75
2023-05-05T19:01:23.372Z,3.55
2023-05-05T19:03:50.186Z,4.30
2023-05-05T19:06:18.060Z,4.03
2023-05-05T19:08:46.640Z,3.78
2023-05-05T19:11:15.122Z,4.63
2023-05-05T19:13:42.649Z,4.70
2023-05-05T19:16:11.256Z,5.00
2023-05-05T19:18:38.775Z,2.05
2023-05-05T19:21:06.344Z,2.28
2023-05-05T19:23:36.439Z,2.22
2023-05-05T19:26:03.906Z,3.10
2023-05-05T19:28:30.869Z,2.70
2023-05-05T19:30:58.013Z,2.15
2023-05-05T19:33:24.801Z,1.70
2023-05-05T19:35:53.282Z,1.60
2023-05-05T19:38:20.364Z,1.75
2023-05-05T19:40:47.949Z,1.52
2023-05-05T19:43:15.105Z,1.83
2023-05-05T19:45:42.422Z,1.80
2023-05-05T19:48:09.263Z,1.63
2023-05-05T19:50:36.740Z,1.50
2023-05-05T19:53:03.954Z,1.60
2023-05-05T19:55:30.965Z,2.17
2023-05-05T19:57:58.705Z,1.38
2023-05-05T20:03:25.862Z,1.80
2023-05-05T20:05:52.659Z,2.42
2023-05-05T20:08:19.562Z,1.98
2023-05-05T20:10:46.543Z,1.42
2023-05-05T20:13:14.084Z,1.55
2023-05-05T20:15:41.469Z,1.67
2023-05-05T20:18:08.969Z,1.52
2023-05-05T20:20:35.908Z,1.50
2023-05-05T20:23:03.353Z,1.40
2023-05-05T20:25:30.593Z,1.60
2023-05-05T20:27:57.456Z,1.50
2023-05-05T20:30:24.512Z,1.70
2023-05-05T20:32:51.451Z,1.15
2023-05-05T20:35:18.773Z,1.48
2023-05-05T20:37:45.896Z,1.77
2023-05-05T20:40:13.302Z,1.50
2023-05-05T20:42:40.170Z,2.10
2023-05-05T20:45:08.204Z,1.83
2023-05-05T20:47:35.547Z,1.80
2023-05-05T20:50:03.790Z,1.80
2023-05-05T20:52:30.645Z,1.75
2023-05-05T20:54:57.327Z,2.05
2023-05-05T20:57:24.613Z,1.85
2023-05-05T20:59:51.445Z,2.15
2023-05-05T21:02:19.131Z,2.10
2023-05-05T21:04:46.166Z,2.00
2023-05-05T21:07:12.873Z,2.20
2023-05-05T21:09:40.056Z,2.22
2023-05-05T21:12:07.379Z,2.28
2023-05-05T21:14:34.132Z,2.28
2023-05-05T21:17:01.157Z,2.58
2023-05-05T21:19:29.741Z,2.47
2023-05-05T21:21:59.218Z,2.40
2023-05-05T21:24:26.102Z,2.40
2023-05-05T21:26:53.103Z,2.55
2023-05-05T21:29:20.007Z,2.30
2023-05-05T21:31:50.726Z,2.20
2023-05-05T21:34:18.199Z,2.08
2023-05-05T21:36:45.426Z,2.10
2023-05-05T21:39:12.711Z,2.03
2023-05-05T21:41:39.653Z,1.90
2023-05-05T21:44:06.673Z,2.20
2023-05-05T21:46:33.984Z,2.05
2023-05-05T21:49:00.932Z,2.15
2023-05-05T21:51:27.620Z,1.98
2023-05-05T21:53:54.468Z,1.85
2023-05-05T21:56:21.219Z,1.90
2023-05-05T21:58:47.953Z,2.67
2023-05-05T22:01:14.734Z,1.80
2023-05-05T22:03:43.642Z,2.00
2023-05-05T22:06:11.666Z,2.10
2023-05-05T22:08:38.676Z,1.83
2023-05-05T22:11:05.507Z,2.03
2023-05-05T22:13:32.244Z,2.20
2023-05-05T22:15:59.225Z,1.88
2023-05-05T22:18:26.002Z,1.60
2023-05-05T22:20:53.113Z,2.20
2023-05-05T22:23:19.816Z,2.00
2023-05-05T22:25:46.768Z,1.52
2023-05-05T22:28:13.579Z,1.75
2023-05-05T22:30:40.655Z,1.73
2023-05-05T22:33:07.463Z,1.55
2023-05-05T22:35:34.814Z,1.77
2023-05-05T22:38:01.566Z,1.90
2023-05-05T22:40:28.340Z,1.83
2023-05-05T22:42:55.368Z,1.85
2023-05-05T22:45:23.355Z,1.70
2023-05-05T22:47:50.682Z,2.05
2023-05-05T22:50:18.091Z,1.77
2023-05-05T22:52:44.964Z,1.70
2023-05-05T22:55:14.083Z,2.05
2023-05-05T22:57:41.910Z,1.67
2023-05-05T23:00:09.414Z,1.70
2023-05-05T23:02:36.646Z,1.80
2023-05-05T23:05:03.729Z,1.80
2023-05-05T23:07:30.806Z,1.90
2023-05-05T23:09:57.552Z,1.60
2023-05-05T23:12:24.367Z,2.00
2023-05-05T23:14:51.128Z,1.77
2023-05-05T23:17:17.892Z,1.63
2023-05-05T23:19:47.806Z,1.90
2023-05-05T23:22:14.766Z,1.90
2023-05-05T23:24:41.592Z,1.83
2023-05-05T23:27:08.726Z,2.13
2023-05-05T23:29:35.734Z,1.90
2023-05-05T23:32:02.465Z,1.97
2023-05-05T23:34:29.209Z,2.00
2023-05-05T23:36:56.151Z,1.90
2023-05-05T23:39:22.951Z,1.80
2023-05-05T23:41:50.067Z,2.20
2023-05-05T23:44:16.805Z,2.20
2023-05-05T23:46:43.568Z,2.30
2023-05-05T23:49:10.613Z,2.10
2023-05-05T23:51:37.373Z,2.13
2023-05-05T23:54:04.509Z,2.23
2023-05-05T23:56:31.509Z,2.10
2023-05-05T23:58:58.204Z,2.10
